sensor_id;sensor_type;location;lat;lon;timestamp;pressure;altitude;pressure_sealevel;temperature;humidity
40490;BME280;26196;52.302;10.572;2023-07-16T00:00:50;99998.81;;;25.66;46.60
40490;BME280;26196;52.302;10.572;2023-07-16T00:04:50;99991.75;;;25.65;46.08
40490;BME280;26196;52.302;10.572;2023-07-16T00:08:50;99983.56;;;25.66;46.14
40490;BME280;26196;52.302;10.572;2023-07-16T00:12:51;99973.16;;;25.63;46.38
40490;BME280;26196;52.302;10.572;2023-07-16T00:16:51;99962.56;;;25.62;46.03
40490;BME280;26196;52.302;10.572;2023-07-16T00:20:51;99955.66;;;25.59;46.28
40490;BME280;26196;52.302;10.572;2023-07-16T00:24:52;99979.47;;;25.62;46.17
40490;BME280;26196;52.302;10.572;2023-07-16T00:28:52;99997.59;;;25.60;46.05
40490;BME280;26196;52.302;10.572;2023-07-16T00:32:53;100011.25;;;25.57;46.34
40490;BME280;26196;52.302;10.572;2023-07-16T00:36:53;100028.03;;;25.59;46.23
40490;BME280;26196;52.302;10.572;2023-07-16T00:40:53;100011.38;;;25.38;46.23
40490;BME280;26196;52.302;10.572;2023-07-16T00:44:53;100047.53;;;25.51;46.35
40490;BME280;26196;52.302;10.572;2023-07-16T00:48:54;100059.50;;;25.57;46.30
40490;BME280;26196;52.302;10.572;2023-07-16T00:52:55;100059.50;;;25.57;46.37
40490;BME280;26196;52.302;10.572;2023-07-16T00:56:55;100002.34;;;25.39;46.63
40490;BME280;26196;52.302;10.572;2023-07-16T01:00:55;100033.03;;;25.44;47.06
40490;BME280;26196;52.302;10.572;2023-07-16T01:04:56;100051.38;;;25.49;47.28
40490;BME280;26196;52.302;10.572;2023-07-16T01:09:03;100023.88;;;25.47;47.06
40490;BME280;26196;52.302;10.572;2023-07-16T01:13:05;99993.72;;;25.45;47.18
40490;BME280;26196;52.302;10.572;2023-07-16T01:17:06;99937.16;;;25.48;47.04
40490;BME280;26196;52.302;10.572;2023-07-16T01:21:06;99981.69;;;25.49;47.02
40490;BME280;26196;52.302;10.572;2023-07-16T01:29:32;100054.88;;;25.49;46.60
40490;BME280;26196;52.302;10.572;2023-07-16T01:33:34;100050.66;;;25.47;46.30
40490;BME280;26196;52.302;10.572;2023-07-16T01:37:35;100021.50;;;25.44;46.17
40490;BME280;26196;52.302;10.572;2023-07-16T01:41:36;100000.88;;;25.44;46.24
40490;BME280;26196;52.302;10.572;2023-07-16T01:45:36;100030.22;;;25.46;46.11
40490;BME280;26196;52.302;10.572;2023-07-16T01:49:37;100059.41;;;25.49;45.84
40490;BME280;26196;52.302;10.572;2023-07-16T01:53:37;100045.47;;;25.45;46.05
40490;BME280;26196;52.302;10.572;2023-07-16T01:57:38;100047.31;;;25.45;46.13
40490;BME280;26196;52.302;10.572;2023-07-16T02:01:38;100022.63;;;25.41;46.21
40490;BME280;26196;52.302;10.572;2023-07-16T02:05:38;99969.22;;;25.40;46.07
40490;BME280;26196;52.302;10.572;2023-07-16T02:09:39;100018.28;;;25.40;46.21
40490;BME280;26196;52.302;10.572;2023-07-16T02:13:40;100019.13;;;25.41;46.09
40490;BME280;26196;52.302;10.572;2023-07-16T02:17:41;100028.16;;;25.40;46.00
40490;BME280;26196;52.302;10.572;2023-07-16T02:21:41;100035.31;;;25.39;46.09
40490;BME280;26196;52.302;10.572;2023-07-16T02:25:42;100042.53;;;25.39;45.97
40490;BME280;26196;52.302;10.572;2023-07-16T02:29:42;100043.53;;;25.38;46.06
40490;BME280;26196;52.302;10.572;2023-07-16T02:33:43;100053.53;;;25.36;45.88
40490;BME280;26196;52.302;10.572;2023-07-16T02:37:43;100057.06;;;25.36;46.10
40490;BME280;26196;52.302;10.572;2023-07-16T02:41:43;100052.72;;;25.35;45.94
40490;BME280;26196;52.302;10.572;2023-07-16T02:45:43;100052.56;;;25.37;45.92
40490;BME280;26196;52.302;10.572;2023-07-16T02:49:44;100052.56;;;25.37;45.76
40490;BME280;26196;52.302;10.572;2023-07-16T02:53:44;100093.44;;;25.39;45.99
40490;BME280;26196;52.302;10.572;2023-07-16T02:57:44;100082.31;;;25.33;46.26
40490;BME280;26196;52.302;10.572;2023-07-16T03:01:45;100065.41;;;25.33;46.44
40490;BME280;26196;52.302;10.572;2023-07-16T03:05:45;100076.28;;;25.31;46.41
40490;BME280;26196;52.302;10.572;2023-07-16T03:09:45;100105.03;;;25.29;46.12
40490;BME280;26196;52.302;10.572;2023-07-16T03:13:46;100108.69;;;25.28;46.08
40490;BME280;26196;52.302;10.572;2023-07-16T03:17:46;100106.00;;;25.28;46.09
40490;BME280;26196;52.302;10.572;2023-07-16T03:21:46;100099.97;;;25.26;46.01
40490;BME280;26196;52.302;10.572;2023-07-16T03:25:49;100104.47;;;25.26;46.15
40490;BME280;26196;52.302;10.572;2023-07-16T03:29:49;100116.31;;;25.23;46.16
40490;BME280;26196;52.302;10.572;2023-07-16T03:33:49;100109.88;;;25.16;46.04
40490;BME280;26196;52.302;10.572;2023-07-16T03:37:50;100138.03;;;25.20;46.01
40490;BME280;26196;52.302;10.572;2023-07-16T03:41:50;100135.53;;;25.19;45.77
40490;BME280;26196;52.302;10.572;2023-07-16T03:45:50;100143.56;;;25.19;45.90
40490;BME280;26196;52.302;10.572;2023-07-16T03:49:51;100140.88;;;25.19;45.97
40490;BME280;26196;52.302;10.572;2023-07-16T03:53:51;100143.25;;;25.12;45.98
40490;BME280;26196;52.302;10.572;2023-07-16T03:57:52;100151.88;;;25.16;45.90
40490;BME280;26196;52.302;10.572;2023-07-16T04:01:52;100142.72;;;25.08;45.96
40490;BME280;26196;52.302;10.572;2023-07-16T04:06:03;100164.56;;;25.14;46.09
40490;BME280;26196;52.302;10.572;2023-07-16T04:10:04;100161.16;;;25.11;45.86
40490;BME280;26196;52.302;10.572;2023-07-16T04:14:05;100171.34;;;25.08;45.95
40490;BME280;26196;52.302;10.572;2023-07-16T04:18:05;100166.25;;;25.05;45.85
40490;BME280;26196;52.302;10.572;2023-07-16T04:22:05;100181.16;;;25.07;45.81
40490;BME280;26196;52.302;10.572;2023-07-16T04:26:06;100191.22;;;25.05;45.86
40490;BME280;26196;52.302;10.572;2023-07-16T04:30:07;100191.63;;;25.01;45.90
40490;BME280;26196;52.302;10.572;2023-07-16T04:34:07;100187.94;;;24.92;45.97
40490;BME280;26196;52.302;10.572;2023-07-16T04:38:07;100208.53;;;24.92;46.06
40490;BME280;26196;52.302;10.572;2023-07-16T04:42:08;100218.94;;;24.95;46.09
40490;BME280;26196;52.302;10.572;2023-07-16T04:46:08;100218.28;;;24.93;46.04
40490;BME280;26196;52.302;10.572;2023-07-16T04:50:08;100228.97;;;24.93;46.07
40490;BME280;26196;52.302;10.572;2023-07-16T04:54:09;100239.09;;;24.89;45.95
40490;BME280;26196;52.302;10.572;2023-07-16T04:58:11;100210.50;;;24.70;46.02
40490;BME280;26196;52.302;10.572;2023-07-16T05:02:11;100246.31;;;24.88;45.98
40490;BME280;26196;52.302;10.572;2023-07-16T05:06:12;100255.16;;;24.89;45.92
40490;BME280;26196;52.302;10.572;2023-07-16T05:10:12;100255.31;;;24.87;46.00
40490;BME280;26196;52.302;10.572;2023-07-16T05:14:13;100251.22;;;24.83;45.99
40490;BME280;26196;52.302;10.572;2023-07-16T05:18:13;100265.31;;;24.85;46.07
40490;BME280;26196;52.302;10.572;2023-07-16T05:22:13;100269.84;;;24.85;46.14
40490;BME280;26196;52.302;10.572;2023-07-16T05:26:14;100271.63;;;24.84;46.06
40490;BME280;26196;52.302;10.572;2023-07-16T05:30:14;100273.34;;;24.85;46.12
40490;BME280;26196;52.302;10.572;2023-07-16T05:34:14;100275.19;;;24.85;45.85
40490;BME280;26196;52.302;10.572;2023-07-16T05:38:15;100277.88;;;24.85;46.13
40490;BME280;26196;52.302;10.572;2023-07-16T05:42:15;100266.00;;;24.78;46.04
40490;BME280;26196;52.302;10.572;2023-07-16T05:46:15;100274.59;;;24.81;45.97
40490;BME280;26196;52.302;10.572;2023-07-16T05:50:16;100292.22;;;24.84;45.91
40490;BME280;26196;52.302;10.572;2023-07-16T05:54:16;100279.53;;;24.76;46.05
40490;BME280;26196;52.302;10.572;2023-07-16T05:58:17;100288.69;;;24.83;46.07
40490;BME280;26196;52.302;10.572;2023-07-16T06:02:17;100294.22;;;24.82;46.02
40490;BME280;26196;52.302;10.572;2023-07-16T06:06:18;100301.25;;;24.83;46.05
40490;BME280;26196;52.302;10.572;2023-07-16T06:10:18;100299.69;;;24.80;45.76
40490;BME280;26196;52.302;10.572;2023-07-16T06:14:18;100299.69;;;24.80;46.10
40490;BME280;26196;52.302;10.572;2023-07-16T06:18:19;100304.63;;;24.75;46.37
40490;BME280;26196;52.302;10.572;2023-07-16T06:22:19;100308.44;;;24.82;46.13
40490;BME280;26196;52.302;10.572;2023-07-16T06:26:19;100311.97;;;24.83;46.19
40490;BME280;26196;52.302;10.572;2023-07-16T06:30:19;100315.47;;;24.83;46.28
40490;BME280;26196;52.302;10.572;2023-07-16T06:34:20;100314.47;;;24.84;46.20
40490;BME280;26196;52.302;10.572;2023-07-16T06:38:20;100325.19;;;24.84;46.05
40490;BME280;26196;52.302;10.572;2023-07-16T06:42:20;100321.66;;;24.84;46.18
40490;BME280;26196;52.302;10.572;2023-07-16T06:46:21;100329.69;;;24.84;46.22
40490;BME280;26196;52.302;10.572;2023-07-16T06:50:22;100335.88;;;24.84;46.21
40490;BME280;26196;52.302;10.572;2023-07-16T06:54:22;100348.31;;;24.85;46.23
40490;BME280;26196;52.302;10.572;2023-07-16T06:58:31;100350.56;;;24.80;46.18
40490;BME280;26196;52.302;10.572;2023-07-16T07:02:31;100349.00;;;24.78;46.37
40490;BME280;26196;52.302;10.572;2023-07-16T07:06:31;100351.00;;;24.85;46.23
40490;BME280;26196;52.302;10.572;2023-07-16T07:10:32;100361.53;;;24.87;46.13
40490;BME280;26196;52.302;10.572;2023-07-16T07:14:33;100362.53;;;24.86;46.31
40490;BME280;26196;52.302;10.572;2023-07-16T07:18:33;100365.22;;;24.86;46.44
40490;BME280;26196;52.302;10.572;2023-07-16T07:22:34;100357.31;;;24.84;46.55
40490;BME280;26196;52.302;10.572;2023-07-16T07:26:34;100357.06;;;24.87;46.42
40490;BME280;26196;52.302;10.572;2023-07-16T07:30:35;100351.94;;;24.84;46.31
40490;BME280;26196;52.302;10.572;2023-07-16T07:34:35;100353.38;;;24.88;46.31
40490;BME280;26196;52.302;10.572;2023-07-16T07:38:35;100345.91;;;24.82;46.23
40490;BME280;26196;52.302;10.572;2023-07-16T07:42:36;100359.75;;;24.87;46.27
40490;BME280;26196;52.302;10.572;2023-07-16T07:46:36;100368.59;;;24.88;46.50
40490;BME280;26196;52.302;10.572;2023-07-16T07:50:36;100359.03;;;24.85;46.62
40490;BME280;26196;52.302;10.572;2023-07-16T07:54:37;100364.94;;;24.89;46.36
40490;BME280;26196;52.302;10.572;2023-07-16T07:58:37;100356.34;;;24.85;46.28
40490;BME280;26196;52.302;10.572;2023-07-16T08:02:38;100361.41;;;24.88;46.10
40490;BME280;26196;52.302;10.572;2023-07-16T08:06:38;100355.06;;;24.89;46.50
40490;BME280;26196;52.302;10.572;2023-07-16T08:10:39;100361.41;;;24.88;46.63
40490;BME280;26196;52.302;10.572;2023-07-16T08:14:40;100361.41;;;24.88;46.11
40490;BME280;26196;52.302;10.572;2023-07-16T08:18:41;100374.53;;;24.92;47.02
40490;BME280;26196;52.302;10.572;2023-07-16T08:22:42;100367.63;;;24.89;46.66
40490;BME280;26196;52.302;10.572;2023-07-16T08:26:42;100364.94;;;24.89;46.23
40490;BME280;26196;52.302;10.572;2023-07-16T08:30:46;100369.44;;;24.88;46.18
40490;BME280;26196;52.302;10.572;2023-07-16T08:34:47;100379.16;;;24.89;46.03
40490;BME280;26196;52.302;10.572;2023-07-16T08:38:47;100380.16;;;24.88;45.86
40490;BME280;26196;52.302;10.572;2023-07-16T08:42:48;100377.03;;;24.83;45.55
40490;BME280;26196;52.302;10.572;2023-07-16T08:46:50;100395.50;;;24.86;45.23
40490;BME280;26196;52.302;10.572;2023-07-16T08:50:51;100383.41;;;24.82;44.99
40490;BME280;26196;52.302;10.572;2023-07-16T08:54:51;100384.63;;;24.78;44.96
40490;BME280;26196;52.302;10.572;2023-07-16T08:58:55;100395.78;;;24.83;44.54
40490;BME280;26196;52.302;10.572;2023-07-16T09:02:58;100381.69;;;24.81;44.25
40490;BME280;26196;52.302;10.572;2023-07-16T09:06:58;100389.72;;;24.81;44.65
40490;BME280;26196;52.302;10.572;2023-07-16T09:10:59;100382.25;;;24.75;44.65
40490;BME280;26196;52.302;10.572;2023-07-16T09:14:59;100386.63;;;24.86;44.61
40490;BME280;26196;52.302;10.572;2023-07-16T09:19:11;100378.59;;;24.86;44.57
40490;BME280;26196;52.302;10.572;2023-07-16T09:23:17;100369.41;;;24.79;44.49
40490;BME280;26196;52.302;10.572;2023-07-16T09:27:17;100383.13;;;24.85;44.49
40490;BME280;26196;52.302;10.572;2023-07-16T09:31:18;100392.81;;;24.86;44.47
40490;BME280;26196;52.302;10.572;2023-07-16T09:35:19;100379.16;;;24.80;44.21
40490;BME280;26196;52.302;10.572;2023-07-16T09:39:19;100390.16;;;24.86;44.43
40490;BME280;26196;52.302;10.572;2023-07-16T09:43:19;100395.38;;;24.88;44.43
40490;BME280;26196;52.302;10.572;2023-07-16T09:47:21;100395.66;;;24.85;44.65
40490;BME280;26196;52.302;10.572;2023-07-16T09:51:22;100406.66;;;24.92;44.42
40490;BME280;26196;52.302;10.572;2023-07-16T09:55:24;100395.38;;;24.88;44.46
40490;BME280;26196;52.302;10.572;2023-07-16T09:59:27;100408.50;;;24.91;44.32
40490;BME280;26196;52.302;10.572;2023-07-16T10:03:29;100409.47;;;24.90;44.18
40490;BME280;26196;52.302;10.572;2023-07-16T10:07:32;100406.53;;;24.93;44.24
40490;BME280;26196;52.302;10.572;2023-07-16T10:11:36;100416.41;;;24.93;44.28
40490;BME280;26196;52.302;10.572;2023-07-16T10:15:37;100414.56;;;24.93;44.07
40490;BME280;26196;52.302;10.572;2023-07-16T10:19:57;100418.19;;;24.92;44.18
40490;BME280;26196;52.302;10.572;2023-07-16T10:23:58;100401.84;;;24.85;44.10
40490;BME280;26196;52.302;10.572;2023-07-16T10:27:59;100419.75;;;24.95;44.03
40490;BME280;26196;52.302;10.572;2023-07-16T10:32:00;100418.78;;;24.96;43.75
40490;BME280;26196;52.302;10.572;2023-07-16T10:36:00;100426.81;;;24.96;43.92
40490;BME280;26196;52.302;10.572;2023-07-16T10:40:02;100429.34;;;24.97;43.84
40490;BME280;26196;52.302;10.572;2023-07-16T10:44:08;100426.56;;;24.99;43.73
40490;BME280;26196;52.302;10.572;2023-07-16T10:48:08;100428.22;;;25.00;43.79
40490;BME280;26196;52.302;10.572;2023-07-16T10:52:08;100428.22;;;25.00;43.61
40490;BME280;26196;52.302;10.572;2023-07-16T10:56:09;100426.44;;;25.00;43.79
40490;BME280;26196;52.302;10.572;2023-07-16T11:00:10;100432.91;;;24.98;43.72
40490;BME280;26196;52.302;10.572;2023-07-16T11:04:11;100427.25;;;25.01;43.42
40490;BME280;26196;52.302;10.572;2023-07-16T11:08:21;100433.75;;;24.98;43.44
40490;BME280;26196;52.302;10.572;2023-07-16T11:12:22;100429.34;;;24.87;42.28
40490;BME280;26196;52.302;10.572;2023-07-16T11:16:23;100421.47;;;24.96;42.09
40490;BME280;26196;52.302;10.572;2023-07-16T11:20:23;100402.13;;;24.82;42.10
40490;BME280;26196;52.302;10.572;2023-07-16T11:24:23;100420.63;;;24.95;42.62
40490;BME280;26196;52.302;10.572;2023-07-16T11:28:35;100428.09;;;25.01;42.51
40490;BME280;26196;52.302;10.572;2023-07-16T11:32:41;100424.44;;;25.02;42.53
40490;BME280;26196;52.302;10.572;2023-07-16T11:36:41;100433.59;;;25.00;42.41
40490;BME280;26196;52.302;10.572;2023-07-16T11:40:42;100427.00;;;25.04;42.43
40490;BME280;26196;52.302;10.572;2023-07-16T11:44:42;100425.31;;;25.03;42.51
40490;BME280;26196;52.302;10.572;2023-07-16T11:48:43;100430.94;;;25.09;42.36
40490;BME280;26196;52.302;10.572;2023-07-16T11:52:55;100433.50;;;25.11;42.25
40490;BME280;26196;52.302;10.572;2023-07-16T11:56:55;100405.69;;;24.93;42.13
40490;BME280;26196;52.302;10.572;2023-07-16T12:00:56;100426.72;;;25.07;42.28
40490;BME280;26196;52.302;10.572;2023-07-16T12:04:56;100445.59;;;25.15;42.46
40490;BME280;26196;52.302;10.572;2023-07-16T12:08:56;100448.91;;;25.19;42.36
40490;BME280;26196;52.302;10.572;2023-07-16T12:12:57;100438.19;;;25.19;42.20
40490;BME280;26196;52.302;10.572;2023-07-16T12:16:57;100431.13;;;25.18;42.13
40490;BME280;26196;52.302;10.572;2023-07-16T12:20:57;100445.13;;;25.21;42.20
40490;BME280;26196;52.302;10.572;2023-07-16T12:24:58;100440.88;;;25.19;42.31
40490;BME280;26196;52.302;10.572;2023-07-16T12:28:59;100437.19;;;25.20;42.36
40490;BME280;26196;52.302;10.572;2023-07-16T12:33:02;100445.69;;;25.25;42.35
40490;BME280;26196;52.302;10.572;2023-07-16T12:37:04;100443.72;;;25.27;42.06
40490;BME280;26196;52.302;10.572;2023-07-16T12:41:05;100452.59;;;25.27;42.12
40490;BME280;26196;52.302;10.572;2023-07-16T12:45:06;100451.59;;;25.28;42.06
40490;BME280;26196;52.302;10.572;2023-07-16T12:49:07;100456.81;;;25.30;42.16
40490;BME280;26196;52.302;10.572;2023-07-16T12:53:07;100454.97;;;25.30;41.95
40490;BME280;26196;52.302;10.572;2023-07-16T12:57:07;100457.53;;;25.32;41.90
40490;BME280;26196;52.302;10.572;2023-07-16T13:01:08;100447.66;;;25.32;42.00
40490;BME280;26196;52.302;10.572;2023-07-16T13:05:08;100459.09;;;25.35;42.23
40490;BME280;26196;52.302;10.572;2023-07-16T13:09:08;100447.66;;;25.32;42.24
40490;BME280;26196;52.302;10.572;2023-07-16T13:13:09;100463.31;;;25.37;41.81
40490;BME280;26196;52.302;10.572;2023-07-16T13:17:09;100460.50;;;25.39;42.21
40490;BME280;26196;52.302;10.572;2023-07-16T13:21:09;100466.69;;;25.39;42.21
40490;BME280;26196;52.302;10.572;2023-07-16T13:25:10;100470.25;;;25.40;42.48
40490;BME280;26196;52.302;10.572;2023-07-16T13:29:10;100455.28;;;25.37;42.52
40490;BME280;26196;52.302;10.572;2023-07-16T13:33:10;100471.94;;;25.41;42.37
40490;BME280;26196;52.302;10.572;2023-07-16T13:37:11;100482.06;;;25.47;42.20
40490;BME280;26196;52.302;10.572;2023-07-16T13:41:11;100466.56;;;25.41;42.37
40490;BME280;26196;52.302;10.572;2023-07-16T13:45:11;100472.34;;;25.46;41.93
40490;BME280;26196;52.302;10.572;2023-07-16T13:49:12;100463.59;;;25.44;42.09
40490;BME280;26196;52.302;10.572;2023-07-16T13:53:12;100474.75;;;25.49;42.08
40490;BME280;26196;52.302;10.572;2023-07-16T13:57:12;100471.94;;;25.50;41.87
40490;BME280;26196;52.302;10.572;2023-07-16T14:01:13;100486.19;;;25.51;41.94
40490;BME280;26196;52.302;10.572;2023-07-16T14:05:13;100481.53;;;25.53;41.78
40490;BME280;26196;52.302;10.572;2023-07-16T14:09:13;100476.59;;;25.48;41.81
40490;BME280;26196;52.302;10.572;2023-07-16T14:13:14;100477.16;;;25.52;42.20
40490;BME280;26196;52.302;10.572;2023-07-16T14:17:16;100481.53;;;25.53;42.12
40490;BME280;26196;52.302;10.572;2023-07-16T14:21:16;100470.09;;;25.51;41.68
40490;BME280;26196;52.302;10.572;2023-07-16T14:25:16;100484.94;;;25.55;41.84
40490;BME280;26196;52.302;10.572;2023-07-16T14:29:17;100483.81;;;25.58;41.70
40490;BME280;26196;52.302;10.572;2023-07-16T14:33:17;100486.34;;;25.59;41.67
40490;BME280;26196;52.302;10.572;2023-07-16T14:37:17;100482.69;;;25.60;42.09
40490;BME280;26196;52.302;10.572;2023-07-16T14:41:17;100478.47;;;25.58;41.75
40490;BME280;26196;52.302;10.572;2023-07-16T14:45:18;100477.16;;;25.62;41.79
40490;BME280;26196;52.302;10.572;2023-07-16T14:49:18;100482.41;;;25.63;41.75
40490;BME280;26196;52.302;10.572;2023-07-16T14:53:18;100471.97;;;25.60;41.96
40490;BME280;26196;52.302;10.572;2023-07-16T14:57:19;100480.41;;;25.65;41.64
40490;BME280;26196;52.302;10.572;2023-07-16T15:01:20;100488.31;;;25.67;41.31
40490;BME280;26196;52.302;10.572;2023-07-16T15:05:20;100483.81;;;25.67;41.91
40490;BME280;26196;52.302;10.572;2023-07-16T15:09:21;100478.44;;;25.67;41.79
40490;BME280;26196;52.302;10.572;2023-07-16T15:13:22;100483.50;;;25.70;41.95
40490;BME280;26196;52.302;10.572;2023-07-16T15:17:25;100478.88;;;25.72;41.81
40490;BME280;26196;52.302;10.572;2023-07-16T15:21:25;100477.75;;;25.75;41.73
40490;BME280;26196;52.302;10.572;2023-07-16T15:25:26;100482.13;;;25.76;41.54
40490;BME280;26196;52.302;10.572;2023-07-16T15:29:26;100478.31;;;25.79;41.44
40490;BME280;26196;52.302;10.572;2023-07-16T15:33:26;100475.50;;;25.80;41.26
40490;BME280;26196;52.302;10.572;2023-07-16T15:37:27;100479.88;;;25.81;41.39
40490;BME280;26196;52.302;10.572;2023-07-16T15:41:27;100488.59;;;25.83;41.18
40490;BME280;26196;52.302;10.572;2023-07-16T15:45:29;100482.31;;;25.84;40.90
40490;BME280;26196;52.302;10.572;2023-07-16T15:49:29;100480.34;;;25.86;40.89
40490;BME280;26196;52.302;10.572;2023-07-16T15:53:29;100487.38;;;25.87;40.81
40490;BME280;26196;52.302;10.572;2023-07-16T15:57:30;100494.31;;;25.90;40.92
40490;BME280;26196;52.302;10.572;2023-07-16T16:01:30;100484.41;;;25.90;40.83
40490;BME280;26196;52.302;10.572;2023-07-16T16:05:31;100486.13;;;25.91;40.99
40490;BME280;26196;52.302;10.572;2023-07-16T16:09:32;100486.81;;;25.93;40.85
40490;BME280;26196;52.302;10.572;2023-07-16T16:13:32;100487.81;;;25.92;40.53
40490;BME280;26196;52.302;10.572;2023-07-16T16:17:32;100485.69;;;25.96;40.95
40490;BME280;26196;52.302;10.572;2023-07-16T16:21:34;100485.53;;;25.97;40.94
40490;BME280;26196;52.302;10.572;2023-07-16T16:25:34;100493.44;;;25.99;40.73
40490;BME280;26196;52.302;10.572;2023-07-16T16:29:35;100496.81;;;26.01;40.76
40490;BME280;26196;52.302;10.572;2023-07-16T16:33:35;100510.94;;;26.03;40.72
40490;BME280;26196;52.302;10.572;2023-07-16T16:37:35;100505.44;;;26.05;40.65
40490;BME280;26196;52.302;10.572;2023-07-16T16:41:36;100504.44;;;26.06;40.78
40490;BME280;26196;52.302;10.572;2023-07-16T16:45:36;100504.31;;;26.07;40.82
40490;BME280;26196;52.302;10.572;2023-07-16T16:49:40;100504.44;;;26.06;40.77
40490;BME280;26196;52.302;10.572;2023-07-16T16:53:42;100513.75;;;26.11;40.56
40490;BME280;26196;52.302;10.572;2023-07-16T16:57:42;100521.81;;;26.11;40.49
40490;BME280;26196;52.302;10.572;2023-07-16T17:01:43;100515.47;;;26.12;40.66
40490;BME280;26196;52.302;10.572;2023-07-16T17:05:43;100512.78;;;26.12;40.89
40490;BME280;26196;52.302;10.572;2023-07-16T17:09:44;100504.75;;;26.12;40.96
40490;BME280;26196;52.302;10.572;2023-07-16T17:13:44;100518.84;;;26.14;40.68
40490;BME280;26196;52.302;10.572;2023-07-16T17:17:44;100503.63;;;26.15;40.92
40490;BME280;26196;52.302;10.572;2023-07-16T17:21:45;100513.22;;;26.17;40.71
40490;BME280;26196;52.302;10.572;2023-07-16T17:25:45;100506.13;;;26.16;40.65
40490;BME280;26196;52.302;10.572;2023-07-16T17:29:45;100506.84;;;26.18;40.79
40490;BME280;26196;52.302;10.572;2023-07-16T17:33:47;100513.91;;;26.19;40.78
40490;BME280;26196;52.302;10.572;2023-07-16T17:37:47;100515.44;;;26.22;40.77
40490;BME280;26196;52.302;10.572;2023-07-16T17:41:47;100516.56;;;26.19;40.75
40490;BME280;26196;52.302;10.572;2023-07-16T17:45:47;100526.19;;;26.22;40.77
40490;BME280;26196;52.302;10.572;2023-07-16T17:49:48;100519.56;;;26.16;40.88
40490;BME280;26196;52.302;10.572;2023-07-16T17:53:48;100536.78;;;26.24;40.83
40490;BME280;26196;52.302;10.572;2023-07-16T17:57:49;100543.13;;;26.23;40.65
40490;BME280;26196;52.302;10.572;2023-07-16T18:01:49;100545.53;;;26.26;40.73
40490;BME280;26196;52.302;10.572;2023-07-16T18:05:50;100540.19;;;26.26;40.75
40490;BME280;26196;52.302;10.572;2023-07-16T18:09:50;100538.63;;;26.23;40.51
40490;BME280;26196;52.302;10.572;2023-07-16T18:13:50;100534.22;;;26.22;40.48
40490;BME280;26196;52.302;10.572;2023-07-16T18:17:50;100536.91;;;26.22;40.83
40490;BME280;26196;52.302;10.572;2023-07-16T18:21:51;100549.91;;;26.27;40.63
40490;BME280;26196;52.302;10.572;2023-07-16T18:25:52;100545.53;;;26.26;40.60
40490;BME280;26196;52.302;10.572;2023-07-16T18:29:52;100541.00;;;26.26;40.78
40490;BME280;26196;52.302;10.572;2023-07-16T18:33:52;100542.84;;;26.26;40.57
40490;BME280;26196;52.302;10.572;2023-07-16T18:37:53;100510.25;;;26.11;40.63
40490;BME280;26196;52.302;10.572;2023-07-16T18:41:53;100539.31;;;26.25;40.63
40490;BME280;26196;52.302;10.572;2023-07-16T18:45:54;100552.59;;;26.27;40.58
40490;BME280;26196;52.302;10.572;2023-07-16T18:49:55;100551.59;;;26.28;40.69
40490;BME280;26196;52.302;10.572;2023-07-16T18:53:58;100549.78;;;26.28;40.73
40490;BME280;26196;52.302;10.572;2023-07-16T18:57:58;100561.63;;;26.26;40.00
40490;BME280;26196;52.302;10.572;2023-07-16T19:01:59;100557.25;;;26.25;40.53
40490;BME280;26196;52.302;10.572;2023-07-16T19:06:02;100555.97;;;26.29;40.55
40490;BME280;26196;52.302;10.572;2023-07-16T19:10:03;100553.00;;;26.22;40.42
40490;BME280;26196;52.302;10.572;2023-07-16T19:14:04;100563.31;;;26.27;40.36
40490;BME280;26196;52.302;10.572;2023-07-16T19:18:04;100553.28;;;26.19;40.36
40490;BME280;26196;52.302;10.572;2023-07-16T19:22:05;100560.63;;;26.27;39.93
40490;BME280;26196;52.302;10.572;2023-07-16T19:26:05;100575.72;;;26.28;40.19
40490;BME280;26196;52.302;10.572;2023-07-16T19:30:06;100575.31;;;26.23;39.84
40490;BME280;26196;52.302;10.572;2023-07-16T19:34:06;100571.09;;;26.20;40.07
40490;BME280;26196;52.302;10.572;2023-07-16T19:38:08;100590.16;;;26.27;39.88
40490;BME280;26196;52.302;10.572;2023-07-16T19:42:08;100594.09;;;26.23;39.95
40490;BME280;26196;52.302;10.572;2023-07-16T19:46:09;100596.78;;;26.23;39.72
40490;BME280;26196;52.302;10.572;2023-07-16T19:50:10;100598.63;;;26.22;39.59
40490;BME280;26196;52.302;10.572;2023-07-16T19:54:10;100587.47;;;26.17;39.95
40490;BME280;26196;52.302;10.572;2023-07-16T19:58:12;100577.88;;;26.05;39.69
40490;BME280;26196;52.302;10.572;2023-07-16T20:02:12;100602.44;;;26.19;39.61
40490;BME280;26196;52.302;10.572;2023-07-16T20:06:13;100612.31;;;26.19;39.52
40490;BME280;26196;52.302;10.572;2023-07-16T20:10:13;100603.56;;;26.17;39.42
40490;BME280;26196;52.302;10.572;2023-07-16T20:14:13;100598.47;;;26.14;39.54
40490;BME280;26196;52.302;10.572;2023-07-16T20:18:15;100617.13;;;26.15;39.43
40490;BME280;26196;52.302;10.572;2023-07-16T20:22:15;100626.16;;;26.14;39.59
40490;BME280;26196;52.302;10.572;2023-07-16T20:26:16;100623.63;;;26.13;39.49
40490;BME280;26196;52.302;10.572;2023-07-16T20:30:16;100626.44;;;26.11;39.63
40490;BME280;26196;52.302;10.572;2023-07-16T20:34:16;100617.94;;;26.06;39.67
40490;BME280;26196;52.302;10.572;2023-07-16T20:38:17;100633.75;;;26.09;39.57
40490;BME280;26196;52.302;10.572;2023-07-16T20:42:17;100625.28;;;26.04;39.64
40490;BME280;26196;52.302;10.572;2023-07-16T20:46:18;100630.53;;;26.06;39.53